KMAEKSCK

Guest
Details From KMAE - KMAE - Madera Muni
To KSCK - Stockton Metropolitan
Flight Number -
Tags generated
Created
Modified
Stats Distance 77 nm / 142 km
Max Altitude 0 ft / 0 m
Waypoints 2
Social Downloads 0
Likes 0
Share VATSIM

Download

Looking for another format? Having issues loading an existing format? Contact us
Advertisement - Login to hide

Notes

Basic altitude profile: - Ascent Rate: 700ft/min - Ascent Speed: 150kts - Cruise Altitude: 2000ft - Cruise Speed: 180kts - Descent Rate: 700ft/min - Descent Speed: 180kts Options: - Use NATs: yes - Use PACOTS: yes - Use low airways: no - Use high airways: no

Route

KMAE KSCK

ID Type Via Altitude Latitude Longitude Leg Dist Tot Dist Heading (true) Name
O KMAE APT - 0 ft / 0 m 36.98598˚ -120.11268˚ - 0 nm - KMAE - Madera Muni
O KSCK APT - 0 ft / 0 m 37.89867˚ -121.23909˚ 76 nm 76 nm 316° / 315° Stockton Metropolitan

Altitude Profile

Advertisement - Login to hide

KMAE

Details ICAO KMAE (MAE)
Name KMAE - Madera Muni
Region United States
Timezone America/Los_Angeles (UTC-8.0)
Stats Elevation 253 ft / 77 m (AMSL)
Location 36.985976° -120.112681°
Runways 2
Magnetic Variation 12.948° E

METAR

KMAE 172253Z AUTO 14006KT 10SM CLR 16/M03 A3004 RMK AO2 SLP171 T01561028

Decode

TAF

Not found

Departure Runways

ID Width Length Bearing (true) Bearing (mag) Surface Threshold Offset Overrun Length
07 150 ft / 46 m 3,697 ft / 1,127 m 90.05° 77.10° Asphalt 0 ft / 0 m 0 ft / 0 m
12 150 ft / 46 m 5,550 ft / 1,692 m 135.10° 122.15° Asphalt 0 ft / 0 m 210 ft / 64 m
25 150 ft / 46 m 3,697 ft / 1,127 m 270.06° 257.11° Asphalt 0 ft / 0 m 0 ft / 0 m
30 150 ft / 46 m 5,550 ft / 1,692 m 315.11° 302.16° Asphalt 0 ft / 0 m 207 ft / 63 m

KSCK

Details ICAO KSCK (SCK)
Name Stockton Metropolitan
Region United States
Timezone America/Los_Angeles (UTC-8.0)
Stats Elevation 30 ft / 9 m (AMSL)
Location 37.898670° -121.239089°
Runways 3
Magnetic Variation 13.341° E

METAR

KSCK 172255Z 14006KT 10SM CLR 16/M02 A3002 RMK AO2 SLP166 T01561017

Decode

TAF

TAF KSCK 172320Z 1800/1824 VRB04KT P6SM FEW250

Decode

Destination Runways

ID Width Length Bearing (true) Bearing (mag) Surface Threshold Offset Overrun Length
05 200 ft / 61 m 2,873 ft / 876 m 62.26° 48.92° Grass 0 ft / 0 m 0 ft / 0 m
11L 151 ft / 46 m 10,647 ft / 3,245 m 127.69° 114.35° Asphalt 991 ft / 302 m 200 ft / 61 m
16 200 ft / 61 m 2,741 ft / 835 m 176.99° 163.65° Grass 0 ft / 0 m 0 ft / 0 m
23 200 ft / 61 m 2,873 ft / 876 m 242.26° 228.92° Grass 0 ft / 0 m 0 ft / 0 m
29R 151 ft / 46 m 10,647 ft / 3,245 m 307.71° 294.37° Asphalt 1,001 ft / 305 m 115 ft / 35 m
34 200 ft / 61 m 2,741 ft / 835 m 356.99° 343.65° Grass 0 ft / 0 m 0 ft / 0 m

Approach Navaids

Runway Type Ident Frequency Range Bearing (true) Bearing (mag) Slope Elevation
29R Localiser ISCK 109.10 MHz 18 nm / 33 km 307.69° 294.34° - 24 ft / 7 m (AMSL)
29R Glidescope ISCK 109.10 MHz 10 nm / 19 km 307.70° 294.36° 2.90° 29 ft / 9 m (AMSL)

Popular Alternatives